sensor_id;sensor_type;location;lat;lon;timestamp;pressure;altitude;pressure_sealevel;temperature;humidity
75972;BME280;64651;47.540;19.088;2022-12-07T00:04:55;100448.78;;;2.57;86.12
75972;BME280;64651;47.540;19.088;2022-12-07T00:09:57;100442.16;;;2.34;86.42
75972;BME280;64651;47.540;19.088;2022-12-07T00:15:00;100431.97;;;1.87;87.83
75972;BME280;64651;47.540;19.088;2022-12-07T00:20:03;100428.88;;;1.58;89.02
75972;BME280;64651;47.540;19.088;2022-12-07T00:25:06;100419.94;;;1.51;90.03
75972;BME280;64651;47.540;19.088;2022-12-07T00:30:08;100406.94;;;1.29;90.68
75972;BME280;64651;47.540;19.088;2022-12-07T00:35:10;100409.03;;;1.33;91.26
75972;BME280;64651;47.540;19.088;2022-12-07T00:40:13;100410.88;;;1.01;92.06
75972;BME280;64651;47.540;19.088;2022-12-07T00:45:15;100400.13;;;0.88;92.39
75972;BME280;64651;47.540;19.088;2022-12-07T00:50:17;100405.19;;;0.78;93.01
75972;BME280;64651;47.540;19.088;2022-12-07T00:55:19;100407.56;;;0.99;93.02
75972;BME280;64651;47.540;19.088;2022-12-07T01:00:21;100409.91;;;0.89;93.34
75972;BME280;64651;47.540;19.088;2022-12-07T01:05:23;100406.22;;;1.15;92.95
75972;BME280;64651;47.540;19.088;2022-12-07T01:10:26;100393.34;;;1.04;93.23
75972;BME280;64651;47.540;19.088;2022-12-07T01:15:28;100393.56;;;0.64;93.79
75972;BME280;64651;47.540;19.088;2022-12-07T01:20:30;100401.59;;;0.39;94.25
75972;BME280;64651;47.540;19.088;2022-12-07T01:25:33;100397.47;;;0.30;94.60
75972;BME280;64651;47.540;19.088;2022-12-07T01:30:35;100394.59;;;0.12;94.96
75972;BME280;64651;47.540;19.088;2022-12-07T01:35:37;100396.87;;;0.15;95.21
75972;BME280;64651;47.540;19.088;2022-12-07T01:40:39;100386.72;;;0.62;94.92
75972;BME280;64651;47.540;19.088;2022-12-07T01:45:41;100393.09;;;0.74;94.30
75972;BME280;64651;47.540;19.088;2022-12-07T01:50:45;100397.16;;;0.52;94.79
75972;BME280;64651;47.540;19.088;2022-12-07T01:55:52;100391.06;;;0.69;94.49
75972;BME280;64651;47.540;19.088;2022-12-07T02:00:55;100395.25;;;1.03;94.02
75972;BME280;64651;47.540;19.088;2022-12-07T02:05:57;100390.00;;;1.40;93.46
75972;BME280;64651;47.540;19.088;2022-12-07T02:11:04;100376.94;;;1.80;92.02
75972;BME280;64651;47.540;19.088;2022-12-07T02:16:22;100384.22;;;2.04;90.64
75972;BME280;64651;47.540;19.088;2022-12-07T02:21:50;100379.47;;;2.18;89.30
75972;BME280;64651;47.540;19.088;2022-12-07T02:27:19;100372.25;;;2.30;88.08
75972;BME280;64651;47.540;19.088;2022-12-07T02:43:28;100379.50;;;2.36;87.33
75972;BME280;64651;47.540;19.088;2022-12-07T02:48:33;100382.78;;;2.38;87.22
75972;BME280;64651;47.540;19.088;2022-12-07T02:53:41;100374.34;;;2.28;87.58
75972;BME280;64651;47.540;19.088;2022-12-07T02:59:02;100376.00;;;2.29;87.65
75972;BME280;64651;47.540;19.088;2022-12-07T03:04:16;100372.09;;;2.43;87.32
75972;BME280;64651;47.540;19.088;2022-12-07T03:09:28;100365.16;;;2.47;87.16
75972;BME280;64651;47.540;19.088;2022-12-07T03:14:40;100365.59;;;2.62;86.61
75972;BME280;64651;47.540;19.088;2022-12-07T03:19:44;100354.81;;;2.56;86.57
75972;BME280;64651;47.540;19.088;2022-12-07T03:24:51;100346.75;;;2.49;87.02
75972;BME280;64651;47.540;19.088;2022-12-07T03:30:02;100350.78;;;2.58;86.94
75972;BME280;64651;47.540;19.088;2022-12-07T03:45:20;100372.13;;;2.73;87.59
75972;BME280;64651;47.540;19.088;2022-12-07T03:55:46;100377.56;;;3.03;86.79
75972;BME280;64651;47.540;19.088;2022-12-07T04:00:49;100386.09;;;3.06;86.76
75972;BME280;64651;47.540;19.088;2022-12-07T04:05:52;100379.69;;;3.01;87.45
75972;BME280;64651;47.540;19.088;2022-12-07T04:10:54;100373.16;;;2.90;88.86
75972;BME280;64651;47.540;19.088;2022-12-07T04:15:57;100369.50;;;2.96;90.91
75972;BME280;64651;47.540;19.088;2022-12-07T04:20:59;100379.69;;;3.01;91.37
75972;BME280;64651;47.540;19.088;2022-12-07T04:26:01;100383.16;;;3.08;91.36
75972;BME280;64651;47.540;19.088;2022-12-07T04:31:03;100387.66;;;3.14;91.66
75972;BME280;64651;47.540;19.088;2022-12-07T04:36:05;100376.22;;;3.23;91.36
75972;BME280;64651;47.540;19.088;2022-12-07T04:41:08;100377.88;;;3.24;92.03
75972;BME280;64651;47.540;19.088;2022-12-07T04:46:11;100380.72;;;3.30;91.70
75972;BME280;64651;47.540;19.088;2022-12-07T04:51:15;100378.38;;;3.33;91.45
75972;BME280;64651;47.540;19.088;2022-12-07T04:56:21;100381.41;;;3.25;92.27
75972;BME280;64651;47.540;19.088;2022-12-07T05:01:24;100383.91;;;3.26;92.42
75972;BME280;64651;47.540;19.088;2022-12-07T05:06:26;100379.66;;;3.31;93.20
75972;BME280;64651;47.540;19.088;2022-12-07T05:11:28;100373.78;;;3.34;92.97
75972;BME280;64651;47.540;19.088;2022-12-07T05:16:44;100360.41;;;3.32;93.11
75972;BME280;64651;47.540;19.088;2022-12-07T05:21:47;100356.59;;;3.21;94.23
75972;BME280;64651;47.540;19.088;2022-12-07T05:26:49;100350.81;;;3.30;94.15
75972;BME280;64651;47.540;19.088;2022-12-07T05:31:51;100345.53;;;3.46;93.06
75972;BME280;64651;47.540;19.088;2022-12-07T05:36:53;100351.31;;;3.38;92.94
75972;BME280;64651;47.540;19.088;2022-12-07T05:41:55;100355.22;;;3.42;92.74
75972;BME280;64651;47.540;19.088;2022-12-07T05:47:16;100349.31;;;3.45;92.17
75972;BME280;64651;47.540;19.088;2022-12-07T05:52:18;100350.03;;;3.52;91.57
75972;BME280;64651;47.540;19.088;2022-12-07T05:57:21;100364.47;;;3.53;91.92
75972;BME280;64651;47.540;19.088;2022-12-07T06:02:23;100361.97;;;3.51;91.74
75972;BME280;64651;47.540;19.088;2022-12-07T06:07:25;100364.38;;;3.59;91.60
75972;BME280;64651;47.540;19.088;2022-12-07T06:12:27;100359.75;;;3.72;90.21
75972;BME280;64651;47.540;19.088;2022-12-07T06:17:36;100366.97;;;3.78;89.03
75972;BME280;64651;47.540;19.088;2022-12-07T06:22:38;100357.88;;;3.84;88.77
75972;BME280;64651;47.540;19.088;2022-12-07T06:27:40;100358.34;;;3.81;89.33
75972;BME280;64651;47.540;19.088;2022-12-07T06:32:42;100359.16;;;3.81;89.58
75972;BME280;64651;47.540;19.088;2022-12-07T06:37:45;100356.56;;;3.86;89.23
75972;BME280;64651;47.540;19.088;2022-12-07T06:42:47;100366.16;;;4.00;87.82
75972;BME280;64651;47.540;19.088;2022-12-07T06:47:49;100374.19;;;4.07;87.89
75972;BME280;64651;47.540;19.088;2022-12-07T06:52:52;100384.38;;;4.00;88.11
75972;BME280;64651;47.540;19.088;2022-12-07T06:57:54;100381.38;;;3.66;89.82
75972;BME280;64651;47.540;19.088;2022-12-07T07:02:56;100387.75;;;3.49;90.21
75972;BME280;64651;47.540;19.088;2022-12-07T07:07:58;100385.38;;;3.41;90.66
75972;BME280;64651;47.540;19.088;2022-12-07T07:13:20;100386.22;;;3.41;90.85
75972;BME280;64651;47.540;19.088;2022-12-07T07:18:23;100388.31;;;3.39;90.95
75972;BME280;64651;47.540;19.088;2022-12-07T07:23:25;100389.16;;;3.40;90.94
75972;BME280;64651;47.540;19.088;2022-12-07T07:28:28;100392.72;;;3.40;91.05
75972;BME280;64651;47.540;19.088;2022-12-07T07:33:36;100394.78;;;3.26;91.00
75972;BME280;64651;47.540;19.088;2022-12-07T07:38:38;100385.34;;;3.29;90.95
75972;BME280;64651;47.540;19.088;2022-12-07T07:43:40;100391.28;;;3.49;90.75
75972;BME280;64651;47.540;19.088;2022-12-07T07:48:43;100386.91;;;3.48;90.58
75972;BME280;64651;47.540;19.088;2022-12-07T07:53:45;100391.44;;;3.66;89.94
75972;BME280;64651;47.540;19.088;2022-12-07T07:58:51;100384.72;;;3.80;89.67
75972;BME280;64651;47.540;19.088;2022-12-07T08:03:54;100383.88;;;4.03;89.19
75972;BME280;64651;47.540;19.088;2022-12-07T08:08:56;100394.06;;;4.31;88.76
75972;BME280;64651;47.540;19.088;2022-12-07T08:14:00;100388.66;;;4.59;87.82
75972;BME280;64651;47.540;19.088;2022-12-07T08:19:04;100394.19;;;4.76;86.62
75972;BME280;64651;47.540;19.088;2022-12-07T08:24:06;100399.06;;;5.02;85.59
75972;BME280;64651;47.540;19.088;2022-12-07T08:29:09;100401.56;;;5.04;84.93
75972;BME280;64651;47.540;19.088;2022-12-07T08:34:12;100409.47;;;5.17;84.93
75972;BME280;64651;47.540;19.088;2022-12-07T08:39:14;100412.22;;;5.34;83.57
75972;BME280;64651;47.540;19.088;2022-12-07T08:44:33;100411.09;;;5.46;83.21
75972;BME280;64651;47.540;19.088;2022-12-07T08:49:43;100405.16;;;5.83;81.30
75972;BME280;64651;47.540;19.088;2022-12-07T08:54:49;100409.03;;;6.37;80.80
75972;BME280;64651;47.540;19.088;2022-12-07T08:59:51;100405.81;;;6.62;79.84
75972;BME280;64651;47.540;19.088;2022-12-07T09:04:53;100414.56;;;6.42;79.47
75972;BME280;64651;47.540;19.088;2022-12-07T09:09:56;100405.41;;;6.97;77.04
75972;BME280;64651;47.540;19.088;2022-12-07T09:14:58;100416.13;;;6.98;75.11
75972;BME280;64651;47.540;19.088;2022-12-07T09:20:04;100412.22;;;7.43;75.01
75972;BME280;64651;47.540;19.088;2022-12-07T09:25:07;100402.16;;;7.48;73.63
75972;BME280;64651;47.540;19.088;2022-12-07T09:30:09;100385.66;;;7.75;71.73
75972;BME280;64651;47.540;19.088;2022-12-07T09:35:12;100382.06;;;7.69;70.13
75972;BME280;64651;47.540;19.088;2022-12-07T09:40:16;100391.25;;;7.85;68.87
75972;BME280;64651;47.540;19.088;2022-12-07T09:45:29;100382.91;;;7.70;70.18
75972;BME280;64651;47.540;19.088;2022-12-07T09:50:33;100372.56;;;8.14;68.81
75972;BME280;64651;47.540;19.088;2022-12-07T09:55:36;100370.91;;;9.38;65.02
75972;BME280;64651;47.540;19.088;2022-12-07T10:00:40;100368.91;;;9.13;64.13
75972;BME280;64651;47.540;19.088;2022-12-07T10:05:45;100368.06;;;9.02;64.13
75972;BME280;64651;47.540;19.088;2022-12-07T10:10:54;100348.59;;;17.82;44.31
75972;BME280;64651;47.540;19.088;2022-12-07T10:15:58;100351.38;;;13.95;48.83
75972;BME280;64651;47.540;19.088;2022-12-07T10:26:27;100341.31;;;18.24;36.33
75972;BME280;64651;47.540;19.088;2022-12-07T10:31:30;100333.53;;;18.85;34.85
75972;BME280;64651;47.540;19.088;2022-12-07T10:36:36;100337.28;;;20.95;33.23
75972;BME280;64651;47.540;19.088;2022-12-07T10:41:59;100336.13;;;15.21;39.62
75972;BME280;64651;47.540;19.088;2022-12-07T10:53:05;100329.66;;;12.76;46.06
75972;BME280;64651;47.540;19.088;2022-12-07T11:25:15;100323.03;;;8.83;57.72
75972;BME280;64651;47.540;19.088;2022-12-07T11:30:31;100317.28;;;9.05;58.04
75972;BME280;64651;47.540;19.088;2022-12-07T11:40:53;100318.34;;;8.26;60.53
75972;BME280;64651;47.540;19.088;2022-12-07T11:46:12;100318.87;;;8.85;58.13
75972;BME280;64651;47.540;19.088;2022-12-07T11:51:18;100309.62;;;9.02;57.57
75972;BME280;64651;47.540;19.088;2022-12-07T11:56:26;100316.94;;;8.66;59.24
75972;BME280;64651;47.540;19.088;2022-12-07T12:06:42;100318.09;;;8.28;61.72
75972;BME280;64651;47.540;19.088;2022-12-07T12:23:07;100295.84;;;8.76;57.28
75972;BME280;64651;47.540;19.088;2022-12-07T12:28:41;100282.69;;;8.93;56.24
75972;BME280;64651;47.540;19.088;2022-12-07T12:33:54;100266.31;;;12.66;48.00
75972;BME280;64651;47.540;19.088;2022-12-07T12:39:14;100245.97;;;17.64;35.76
75972;BME280;64651;47.540;19.088;2022-12-07T12:59:29;100251.16;;;13.01;45.81
75972;BME280;64651;47.540;19.088;2022-12-07T13:09:57;100273.12;;;9.21;55.99
75972;BME280;64651;47.540;19.088;2022-12-07T13:14:59;100274.75;;;8.92;57.71
75972;BME280;64651;47.540;19.088;2022-12-07T13:20:04;100269.19;;;8.62;56.90
75972;BME280;64651;47.540;19.088;2022-12-07T13:30:31;100286.59;;;9.23;53.78
75972;BME280;64651;47.540;19.088;2022-12-07T13:35:36;100280.13;;;7.57;57.93
75972;BME280;64651;47.540;19.088;2022-12-07T13:40:41;100293.06;;;7.30;59.39
75972;BME280;64651;47.540;19.088;2022-12-07T13:45:43;100278.53;;;6.98;60.98
75972;BME280;64651;47.540;19.088;2022-12-07T13:50:56;100292.91;;;6.61;63.01
75972;BME280;64651;47.540;19.088;2022-12-07T13:56:00;100302.28;;;6.22;65.02
75972;BME280;64651;47.540;19.088;2022-12-07T14:01:03;100304.31;;;6.31;65.76
75972;BME280;64651;47.540;19.088;2022-12-07T14:06:19;100312.69;;;6.25;66.17
75972;BME280;64651;47.540;19.088;2022-12-07T14:11:21;100304.84;;;6.11;66.92
75972;BME280;64651;47.540;19.088;2022-12-07T14:16:35;100298.13;;;5.97;67.62
75972;BME280;64651;47.540;19.088;2022-12-07T14:21:38;100297.53;;;5.62;69.38
75972;BME280;64651;47.540;19.088;2022-12-07T14:26:41;100304.41;;;5.31;70.19
75972;BME280;64651;47.540;19.088;2022-12-07T14:31:43;100303.56;;;4.97;71.92
75972;BME280;64651;47.540;19.088;2022-12-07T14:36:45;100315.00;;;4.82;72.62
75972;BME280;64651;47.540;19.088;2022-12-07T14:41:48;100309.50;;;4.66;73.74
75972;BME280;64651;47.540;19.088;2022-12-07T14:46:53;100308.97;;;4.52;74.00
75972;BME280;64651;47.540;19.088;2022-12-07T14:52:26;100320.31;;;4.61;73.94
75972;BME280;64651;47.540;19.088;2022-12-07T14:57:48;100327.19;;;4.52;72.69
75972;BME280;64651;47.540;19.088;2022-12-07T15:02:51;100329.69;;;4.13;75.73
75972;BME280;64651;47.540;19.088;2022-12-07T15:07:53;100336.25;;;4.40;75.63
75972;BME280;64651;47.540;19.088;2022-12-07T15:12:56;100335.53;;;4.33;78.15
75972;BME280;64651;47.540;19.088;2022-12-07T15:18:23;100328.34;;;4.27;76.39
75972;BME280;64651;47.540;19.088;2022-12-07T15:23:25;100327.66;;;4.20;76.48
75972;BME280;64651;47.540;19.088;2022-12-07T15:28:27;100332.31;;;3.96;75.70
75972;BME280;64651;47.540;19.088;2022-12-07T15:33:29;100345.31;;;3.59;77.23
75972;BME280;64651;47.540;19.088;2022-12-07T15:38:31;100350.38;;;3.56;77.03
75972;BME280;64651;47.540;19.088;2022-12-07T15:43:53;100347.50;;;3.28;78.36
75972;BME280;64651;47.540;19.088;2022-12-07T15:49:18;100356.09;;;3.13;78.98
75972;BME280;64651;47.540;19.088;2022-12-07T15:54:24;100371.44;;;3.07;79.35
75972;BME280;64651;47.540;19.088;2022-12-07T15:59:27;100361.63;;;3.06;78.42
75972;BME280;64651;47.540;19.088;2022-12-07T16:04:30;100365.13;;;2.95;79.26
75972;BME280;64651;47.540;19.088;2022-12-07T16:09:32;100365.31;;;2.82;79.71
75972;BME280;64651;47.540;19.088;2022-12-07T16:14:35;100365.00;;;2.60;80.90
75972;BME280;64651;47.540;19.088;2022-12-07T16:19:38;100366.88;;;2.41;81.73
75972;BME280;64651;47.540;19.088;2022-12-07T16:24:40;100366.34;;;2.51;81.13
75972;BME280;64651;47.540;19.088;2022-12-07T16:29:42;100366.13;;;2.16;82.54
75972;BME280;64651;47.540;19.088;2022-12-07T16:34:44;100360.75;;;1.91;83.43
75972;BME280;64651;47.540;19.088;2022-12-07T16:39:46;100362.66;;;1.66;84.67
75972;BME280;64651;47.540;19.088;2022-12-07T16:44:48;100361.25;;;2.07;83.33
75972;BME280;64651;47.540;19.088;2022-12-07T16:49:51;100369.03;;;1.96;83.44
75972;BME280;64651;47.540;19.088;2022-12-07T16:54:53;100376.63;;;2.13;82.79
75972;BME280;64651;47.540;19.088;2022-12-07T16:59:56;100368.75;;;1.86;84.36
75972;BME280;64651;47.540;19.088;2022-12-07T17:04:58;100367.31;;;1.59;85.52
75972;BME280;64651;47.540;19.088;2022-12-07T17:10:00;100375.34;;;1.47;86.46
75972;BME280;64651;47.540;19.088;2022-12-07T17:15:03;100384.84;;;1.32;87.17
75972;BME280;64651;47.540;19.088;2022-12-07T17:20:24;100391.19;;;1.19;87.91
75972;BME280;64651;47.540;19.088;2022-12-07T17:25:26;100391.06;;;1.07;88.63
75972;BME280;64651;47.540;19.088;2022-12-07T17:30:29;100398.38;;;1.00;89.70
75972;BME280;64651;47.540;19.088;2022-12-07T17:35:31;100382.59;;;0.97;89.97
75972;BME280;64651;47.540;19.088;2022-12-07T17:40:33;100386.41;;;0.83;90.53
75972;BME280;64651;47.540;19.088;2022-12-07T17:45:36;100389.53;;;0.80;90.86
75972;BME280;64651;47.540;19.088;2022-12-07T17:50:39;100391.94;;;1.01;90.06
75972;BME280;64651;47.540;19.088;2022-12-07T17:55:59;100394.62;;;1.01;89.29
75972;BME280;64651;47.540;19.088;2022-12-07T18:01:22;100391.78;;;0.90;89.75
75972;BME280;64651;47.540;19.088;2022-12-07T18:06:25;100397.63;;;0.87;89.84
75972;BME280;64651;47.540;19.088;2022-12-07T18:11:27;100404.34;;;0.77;90.09
75972;BME280;64651;47.540;19.088;2022-12-07T18:16:31;100419.97;;;0.75;90.43
75972;BME280;64651;47.540;19.088;2022-12-07T18:21:36;100421.31;;;0.60;91.00
75972;BME280;64651;47.540;19.088;2022-12-07T18:26:39;100412.12;;;0.61;90.69
75972;BME280;64651;47.540;19.088;2022-12-07T18:31:42;100415.72;;;0.48;91.41
75972;BME280;64651;47.540;19.088;2022-12-07T18:36:47;100410.72;;;0.45;91.18
75972;BME280;64651;47.540;19.088;2022-12-07T18:41:54;100415.56;;;0.30;92.26
75972;BME280;64651;47.540;19.088;2022-12-07T18:46:56;100403.78;;;0.62;91.31
75972;BME280;64651;47.540;19.088;2022-12-07T18:51:58;100404.44;;;0.58;90.76
75972;BME280;64651;47.540;19.088;2022-12-07T18:57:00;100399.09;;;0.38;91.69
75972;BME280;64651;47.540;19.088;2022-12-07T19:02:02;100413.09;;;0.22;92.30
75972;BME280;64651;47.540;19.088;2022-12-07T19:07:05;100416.66;;;0.03;92.89
75972;BME280;64651;47.540;19.088;2022-12-07T19:12:10;100426.66;;;0.02;93.34
75972;BME280;64651;47.540;19.088;2022-12-07T19:17:13;100417.66;;;0.28;92.88
75972;BME280;64651;47.540;19.088;2022-12-07T19:22:18;100426.47;;;0.61;91.94
75972;BME280;64651;47.540;19.088;2022-12-07T19:27:22;100430.25;;;0.60;91.91
75972;BME280;64651;47.540;19.088;2022-12-07T19:32:24;100428.66;;;0.39;92.23
75972;BME280;64651;47.540;19.088;2022-12-07T19:37:27;100434.91;;;0.27;92.33
75972;BME280;64651;47.540;19.088;2022-12-07T19:42:29;100429.94;;;0.24;92.83
75972;BME280;64651;47.540;19.088;2022-12-07T19:47:36;100422.06;;;0.03;93.42
75972;BME280;64651;47.540;19.088;2022-12-07T19:52:38;100424.56;;;-0.03;93.90
75972;BME280;64651;47.540;19.088;2022-12-07T19:57:40;100424.16;;;-0.06;94.14
75972;BME280;64651;47.540;19.088;2022-12-07T20:02:43;100421.25;;;-0.24;94.39
75972;BME280;64651;47.540;19.088;2022-12-07T20:07:45;100437.28;;;-0.23;94.21
75972;BME280;64651;47.540;19.088;2022-12-07T20:12:47;100437.69;;;-0.32;94.75
75972;BME280;64651;47.540;19.088;2022-12-07T20:18:08;100433.13;;;-0.32;94.70
75972;BME280;64651;47.540;19.088;2022-12-07T20:23:10;100442.88;;;-0.51;95.22
75972;BME280;64651;47.540;19.088;2022-12-07T20:28:12;100443.72;;;-0.57;95.25
75972;BME280;64651;47.540;19.088;2022-12-07T20:33:15;100434.16;;;-0.26;95.41
75972;BME280;64651;47.540;19.088;2022-12-07T20:38:17;100442.25;;;-0.53;95.63
75972;BME280;64651;47.540;19.088;2022-12-07T20:43:19;100457.84;;;-0.61;95.84
75972;BME280;64651;47.540;19.088;2022-12-07T20:48:21;100463.22;;;-0.68;96.06
75972;BME280;64651;47.540;19.088;2022-12-07T20:53:24;100464.06;;;-0.74;96.21
75972;BME280;64651;47.540;19.088;2022-12-07T20:58:26;100461.97;;;-0.65;96.30
75972;BME280;64651;47.540;19.088;2022-12-07T21:03:29;100454.13;;;-0.34;96.32
75972;BME280;64651;47.540;19.088;2022-12-07T21:08:31;100454.09;;;-0.54;96.30
75972;BME280;64651;47.540;19.088;2022-12-07T21:13:34;100466.16;;;-0.63;96.17
75972;BME280;64651;47.540;19.088;2022-12-07T21:18:36;100461.94;;;-0.78;96.48
75972;BME280;64651;47.540;19.088;2022-12-07T21:23:39;100451.75;;;-0.90;96.74
75972;BME280;64651;47.540;19.088;2022-12-07T21:28:41;100460.87;;;-0.91;96.90
75972;BME280;64651;47.540;19.088;2022-12-07T21:33:44;100455.69;;;-0.92;96.82
75972;BME280;64651;47.540;19.088;2022-12-07T21:38:47;100461.94;;;-0.92;96.85
75972;BME280;64651;47.540;19.088;2022-12-07T21:43:50;100462.12;;;-0.93;96.89
75972;BME280;64651;47.540;19.088;2022-12-07T21:48:55;100468.94;;;-0.97;97.00
75972;BME280;64651;47.540;19.088;2022-12-07T21:53:59;100476.69;;;-0.88;96.75
75972;BME280;64651;47.540;19.088;2022-12-07T21:59:05;100475.94;;;-0.62;96.74
75972;BME280;64651;47.540;19.088;2022-12-07T22:04:11;100471.16;;;-0.33;96.83
75972;BME280;64651;47.540;19.088;2022-12-07T22:09:14;100474.06;;;-0.35;96.35
75972;BME280;64651;47.540;19.088;2022-12-07T22:14:17;100479.03;;;-0.52;96.19
75972;BME280;64651;47.540;19.088;2022-12-07T22:19:38;100476.94;;;-0.69;96.11
75972;BME280;64651;47.540;19.088;2022-12-07T22:24:41;100478.16;;;-0.78;96.10
75972;BME280;64651;47.540;19.088;2022-12-07T22:29:44;100463.56;;;-0.97;96.23
75972;BME280;64651;47.540;19.088;2022-12-07T22:34:46;100445.88;;;-1.06;96.52
75972;BME280;64651;47.540;19.088;2022-12-07T22:39:48;100445.28;;;-1.02;96.60
75972;BME280;64651;47.540;19.088;2022-12-07T22:44:50;100444.41;;;-1.09;96.69
75972;BME280;64651;47.540;19.088;2022-12-07T22:49:53;100457.69;;;-1.14;96.77
75972;BME280;64651;47.540;19.088;2022-12-07T22:54:56;100460.81;;;-1.17;96.62
75972;BME280;64651;47.540;19.088;2022-12-07T22:59:58;100456.66;;;-1.13;96.79
75972;BME280;64651;47.540;19.088;2022-12-07T23:05:00;100454.37;;;-1.09;96.30
75972;BME280;64651;47.540;19.088;2022-12-07T23:10:04;100447.78;;;-1.00;96.33
75972;BME280;64651;47.540;19.088;2022-12-07T23:15:07;100454.44;;;-0.90;96.19
75972;BME280;64651;47.540;19.088;2022-12-07T23:20:09;100454.69;;;-0.78;95.84
75972;BME280;64651;47.540;19.088;2022-12-07T23:25:12;100453.03;;;-0.66;95.45
75972;BME280;64651;47.540;19.088;2022-12-07T23:30:14;100446.81;;;-0.60;95.15
75972;BME280;64651;47.540;19.088;2022-12-07T23:35:16;100448.69;;;-0.60;95.06
75972;BME280;64651;47.540;19.088;2022-12-07T23:40:18;100448.69;;;-0.54;94.88
75972;BME280;64651;47.540;19.088;2022-12-07T23:45:21;100456.59;;;-0.46;94.84
75972;BME280;64651;47.540;19.088;2022-12-07T23:50:23;100453.72;;;-0.31;94.37
75972;BME280;64651;47.540;19.088;2022-12-07T23:55:25;100459.09;;;-0.24;94.14
